createdAt,value
2022-08-12T00:00:51.795Z,67.51
2022-08-12T00:04:17.227Z,69.11
2022-08-12T00:07:25.723Z,69.41
2022-08-12T00:10:33.514Z,69.03
2022-08-12T00:13:58.437Z,68.03
2022-08-12T00:17:07.738Z,68.60
2022-08-12T00:23:45.320Z,68.75
2022-08-12T00:27:06.028Z,69.07
2022-08-12T00:30:14.063Z,69.37
2022-08-12T00:33:04.140Z,69.74
2022-08-12T00:35:54.698Z,69.57
2022-08-12T00:39:04.714Z,70.37
2022-08-12T00:41:55.471Z,70.10
2022-08-12T00:45:02.269Z,69.92
2022-08-12T00:48:11.703Z,70.30
2022-08-12T00:51:02.735Z,71.02
2022-08-12T00:53:53.146Z,71.75
2022-08-12T00:57:37.343Z,72.55
2022-08-12T01:00:27.258Z,73.16
2022-08-12T01:03:18.709Z,72.00
2022-08-12T01:06:11.089Z,73.61
2022-08-12T01:15:53.111Z,72.46
2022-08-12T01:19:18.541Z,72.26
2022-08-12T01:22:34.062Z,72.91
2022-08-12T01:25:29.677Z,73.23
2022-08-12T01:28:21.774Z,73.13
2022-08-12T01:30:55.545Z,73.58
2022-08-12T01:33:47.721Z,73.69
2022-08-12T01:36:23.782Z,74.04
2022-08-12T01:49:13.869Z,73.91
2022-08-12T01:52:25.695Z,74.60
2022-08-12T01:59:19.298Z,76.41
2022-08-12T02:02:16.975Z,78.15
2022-08-12T02:05:43.901Z,78.69
2022-08-12T02:09:01.397Z,78.02
2022-08-12T02:12:13.853Z,79.44
2022-08-12T02:15:42.347Z,80.53
2022-08-12T02:18:43.684Z,80.89
2022-08-12T02:21:39.966Z,81.86
2022-08-12T02:27:45.771Z,83.30
2022-08-12T02:37:50.858Z,84.85
2022-08-12T02:44:28.407Z,85.35
2022-08-12T02:47:59.770Z,86.02
2022-08-12T03:06:15.947Z,90.60
2022-08-12T03:09:09.356Z,90.51
2022-08-12T03:11:49.956Z,89.97
2022-08-12T03:15:00.786Z,91.25
2022-08-12T03:18:24.938Z,91.62
2022-08-12T03:28:38.733Z,93.85
2022-08-12T03:31:47.152Z,93.92
2022-08-12T03:34:56.101Z,93.57
2022-08-12T03:37:46.160Z,92.75
2022-08-12T03:47:02.750Z,91.79
2022-08-12T03:49:53.395Z,91.48
2022-08-12T03:52:43.101Z,91.39
2022-08-12T03:55:50.712Z,91.64
2022-08-12T04:05:21.443Z,90.72
2022-08-12T04:08:14.734Z,90.86
2022-08-12T04:11:21.735Z,90.50
2022-08-12T04:18:06.666Z,89.93
2022-08-12T04:20:59.135Z,89.48
2022-08-12T04:26:42.749Z,89.32
2022-08-12T04:30:31.511Z,89.05
2022-08-12T04:33:01.913Z,89.39
2022-08-12T04:35:51.723Z,89.11
2022-08-12T04:38:24.585Z,89.37
2022-08-12T04:41:14.028Z,89.22
2022-08-12T04:44:03.857Z,89.37
2022-08-12T04:50:41.217Z,89.42
2022-08-12T04:53:41.372Z,89.82
2022-08-12T04:56:13.845Z,89.18
2022-08-12T05:02:30.983Z,88.31
2022-08-12T05:05:23.484Z,87.85
2022-08-12T05:15:19.751Z,86.59
2022-08-12T05:18:19.538Z,86.72
2022-08-12T05:21:29.469Z,86.54
2022-08-12T05:24:02.422Z,86.60
2022-08-12T05:26:52.100Z,86.53
2022-08-12T05:30:07.866Z,86.83
2022-08-12T05:33:10.494Z,86.10
2022-08-12T05:35:44.605Z,86.21
2022-08-12T05:38:52.674Z,85.86
2022-08-12T05:49:08.327Z,82.78
2022-08-12T05:51:59.311Z,80.32
2022-08-12T05:54:56.241Z,79.21
2022-08-12T05:57:23.722Z,78.46
2022-08-12T06:00:32.001Z,76.99
2022-08-12T06:06:39.141Z,75.49
2022-08-12T06:16:24.415Z,74.04
2022-08-12T06:19:13.788Z,73.46
2022-08-12T06:21:49.011Z,72.46
2022-08-12T06:28:22.871Z,65.57
2022-08-12T06:35:23.705Z,61.74
2022-08-12T06:37:32.812Z,55.88
2022-08-12T06:40:41.656Z,54.39
2022-08-12T06:44:06.307Z,52.30
2022-08-12T06:46:25.840Z,48.75
2022-08-12T06:49:19.240Z,49.91
2022-08-12T06:55:58.321Z,49.23
2022-08-12T06:59:23.620Z,50.18
2022-08-12T07:02:14.360Z,47.78
2022-08-12T07:05:05.542Z,47.29
2022-08-12T07:07:56.051Z,45.95
2022-08-12T07:10:46.530Z,45.79
2022-08-12T07:16:53.734Z,44.46
2022-08-12T07:22:34.717Z,42.76
2022-08-12T07:29:07.448Z,42.29
2022-08-12T07:35:07.394Z,41.65
2022-08-12T07:38:15.845Z,41.23
2022-08-12T07:41:05.653Z,41.24
2022-08-12T07:43:58.268Z,41.64
2022-08-12T07:46:51.112Z,41.68
2022-08-12T07:49:24.748Z,42.40
2022-08-12T07:52:15.300Z,42.48
2022-08-12T07:55:08.589Z,42.06
2022-08-12T07:58:33.339Z,42.50
2022-08-12T08:02:04.257Z,43.07
2022-08-12T08:05:29.460Z,42.13
2022-08-12T08:08:40.434Z,40.74
2022-08-12T08:11:48.824Z,39.49
2022-08-12T08:17:47.620Z,36.94
2022-08-12T08:20:39.676Z,36.89
2022-08-12T08:26:42.974Z,36.42
2022-08-12T08:29:49.986Z,36.27
2022-08-12T08:35:49.173Z,37.22
2022-08-12T08:38:58.251Z,36.94
2022-08-12T08:42:14.031Z,36.42
2022-08-12T08:45:13.073Z,36.20
2022-08-12T08:48:02.594Z,35.66
2022-08-12T08:51:10.557Z,35.44
2022-08-12T08:54:00.077Z,35.91
2022-08-12T08:57:08.562Z,35.24
2022-08-12T09:05:07.545Z,35.11
2022-08-12T09:06:38.139Z,33.79
2022-08-12T09:09:34.008Z,33.54
2022-08-12T09:15:55.843Z,34.03
2022-08-12T09:18:47.788Z,33.93
2022-08-12T09:22:00.562Z,33.59
2022-08-12T09:25:11.087Z,32.77
2022-08-12T09:32:03.696Z,32.00
2022-08-12T09:34:55.255Z,32.13
2022-08-12T09:37:58.379Z,31.55
2022-08-12T09:41:02.234Z,31.60
2022-08-12T09:44:38.915Z,31.80
2022-08-12T09:47:46.188Z,32.17
2022-08-12T09:53:36.127Z,32.59
2022-08-12T10:03:06.900Z,30.51
2022-08-12T10:06:27.871Z,30.56
2022-08-12T10:08:54.515Z,30.31
2022-08-12T10:12:31.109Z,29.80
2022-08-12T10:15:05.589Z,30.57
2022-08-12T10:18:06.332Z,30.69
2022-08-12T10:20:31.779Z,30.82
2022-08-12T10:27:08.503Z,30.55
2022-08-12T10:40:09.826Z,29.53
2022-08-12T10:43:54.401Z,29.63
2022-08-12T10:50:29.579Z,30.05
2022-08-12T10:53:44.242Z,31.87
2022-08-12T10:56:21.813Z,32.85
2022-08-12T10:59:13.669Z,33.22
2022-08-12T11:04:16.743Z,33.89
2022-08-12T11:04:59.039Z,33.94
2022-08-12T11:08:36.414Z,34.23
2022-08-12T11:12:36.728Z,33.96
2022-08-12T11:24:51.601Z,31.43
2022-08-12T11:30:50.943Z,30.99
2022-08-12T11:34:05.425Z,30.29
2022-08-12T11:36:53.535Z,28.72
2022-08-12T11:40:03.609Z,28.81
2022-08-12T11:42:53.234Z,28.54
2022-08-12T11:55:05.956Z,29.27
2022-08-12T12:02:02.458Z,29.05
2022-08-12T12:04:12.166Z,28.58
2022-08-12T12:07:07.423Z,27.39
2022-08-12T12:09:52.333Z,27.22
2022-08-12T12:12:49.676Z,27.25
2022-08-12T12:22:30.888Z,26.66
2022-08-12T12:26:08.376Z,25.79
2022-08-12T12:30:18.374Z,26.31
2022-08-12T12:33:18.023Z,25.58
2022-08-12T12:36:25.308Z,25.52
2022-08-12T12:39:55.838Z,25.15
2022-08-12T12:42:47.562Z,25.09
2022-08-12T12:45:59.086Z,25.05
2022-08-12T12:48:32.362Z,25.31
2022-08-12T12:51:49.345Z,25.61
2022-08-12T12:57:59.085Z,25.49
2022-08-12T13:00:51.176Z,25.27
2022-08-12T13:04:01.703Z,25.09
2022-08-12T13:06:53.538Z,24.52
2022-08-12T13:09:46.517Z,25.08
2022-08-12T13:27:40.003Z,27.01
2022-08-12T13:31:03.975Z,28.31
2022-08-12T13:34:32.422Z,28.75
2022-08-12T13:37:21.676Z,29.22
2022-08-12T13:40:20.147Z,29.17
2022-08-12T13:52:29.204Z,29.94
2022-08-12T13:58:18.112Z,30.61
2022-08-12T14:02:22.455Z,30.35
2022-08-12T14:05:37.518Z,30.47
2022-08-12T14:08:34.609Z,30.24
2022-08-12T14:30:28.995Z,32.32
2022-08-12T14:34:13.926Z,32.70
2022-08-12T14:37:57.695Z,32.63
2022-08-12T14:40:55.634Z,32.99
2022-08-12T14:44:04.962Z,33.26
2022-08-12T14:46:59.835Z,33.44
2022-08-12T14:50:33.417Z,33.27
2022-08-12T14:54:52.882Z,33.21
2022-08-12T14:57:19.081Z,33.13
2022-08-12T15:03:19.219Z,32.59
2022-08-12T15:06:39.824Z,32.41
2022-08-12T15:09:16.027Z,32.32
2022-08-12T15:12:25.310Z,32.29
2022-08-12T15:15:45.466Z,32.29
2022-08-12T15:18:50.578Z,32.28
2022-08-12T15:25:39.941Z,31.98
2022-08-12T15:28:38.221Z,32.01
2022-08-12T15:35:01.057Z,31.89
2022-08-12T15:38:30.690Z,31.66
2022-08-12T15:41:16.627Z,31.58
2022-08-12T15:44:36.536Z,31.71
2022-08-12T15:47:26.785Z,31.92
2022-08-12T15:50:30.254Z,32.42
2022-08-12T15:53:14.322Z,32.11
2022-08-12T15:56:17.621Z,32.19
2022-08-12T15:58:53.475Z,32.41
2022-08-12T16:01:35.460Z,32.49
2022-08-12T16:04:12.769Z,32.42
2022-08-12T16:10:06.237Z,32.87
2022-08-12T16:13:05.024Z,33.01
2022-08-12T16:15:42.271Z,33.16
2022-08-12T16:18:26.143Z,32.87
2022-08-12T16:21:52.718Z,32.69
2022-08-12T16:32:14.975Z,32.99
2022-08-12T16:42:04.892Z,33.18
2022-08-12T16:44:45.724Z,33.27
2022-08-12T16:47:58.905Z,33.43
2022-08-12T16:53:54.856Z,33.63
2022-08-12T16:59:30.967Z,34.01
2022-08-12T17:02:44.940Z,34.06
2022-08-12T17:12:16.087Z,34.76
2022-08-12T17:14:52.982Z,34.92
2022-08-12T17:17:38.981Z,35.24
2022-08-12T17:20:35.409Z,35.34
2022-08-12T17:23:33.438Z,35.44
2022-08-12T17:30:09.232Z,36.02
2022-08-12T17:33:24.854Z,35.70
2022-08-12T17:36:33.120Z,36.11
2022-08-12T17:40:06.721Z,36.32
2022-08-12T17:42:47.892Z,36.71
2022-08-12T17:46:00.033Z,36.76
2022-08-12T17:48:57.832Z,36.94
2022-08-12T17:51:49.965Z,37.21
2022-08-12T17:58:17.217Z,37.43
2022-08-12T18:05:23.135Z,38.05
2022-08-12T18:08:38.670Z,38.20
2022-08-12T18:12:04.009Z,38.26
2022-08-12T18:16:03.277Z,38.54
2022-08-12T18:18:32.852Z,38.56
2022-08-12T18:22:01.076Z,38.62
2022-08-12T18:26:13.386Z,38.62
2022-08-12T18:35:46.892Z,39.05
2022-08-12T18:38:51.175Z,38.79
2022-08-12T18:45:03.987Z,39.08
2022-08-12T18:51:45.933Z,38.97
2022-08-12T18:54:49.404Z,39.05
2022-08-12T19:02:19.199Z,39.02
2022-08-12T19:05:08.209Z,39.16
2022-08-12T19:12:20.760Z,39.42
2022-08-12T19:15:54.457Z,39.28
2022-08-12T19:19:07.885Z,39.27
2022-08-12T19:22:28.921Z,39.19
2022-08-12T19:26:42.218Z,39.45
2022-08-12T19:30:08.899Z,39.29
2022-08-12T19:33:21.178Z,39.23
2022-08-12T19:37:04.358Z,39.72
2022-08-12T19:40:09.045Z,39.56
2022-08-12T19:43:59.200Z,39.69
2022-08-12T19:47:47.685Z,39.67
2022-08-12T19:50:50.602Z,39.94
2022-08-12T19:54:23.377Z,39.72
2022-08-12T19:57:42.538Z,40.31
2022-08-12T20:01:20.737Z,41.14
2022-08-12T20:07:56.841Z,42.01
2022-08-12T20:12:11.962Z,42.16
2022-08-12T20:14:57.387Z,43.07
2022-08-12T20:21:16.176Z,45.31
2022-08-12T20:24:01.499Z,47.52
2022-08-12T20:27:28.727Z,49.99
2022-08-12T20:30:53.472Z,48.39
2022-08-12T20:38:06.480Z,45.60
2022-08-12T20:40:47.881Z,45.46
2022-08-12T20:43:42.129Z,46.20
2022-08-12T20:46:23.812Z,46.12
2022-08-12T20:49:36.476Z,46.01
2022-08-12T20:52:19.849Z,45.22
2022-08-12T20:58:22.432Z,44.61
2022-08-12T21:07:14.343Z,44.38
2022-08-12T21:19:02.423Z,44.78
2022-08-12T21:22:24.377Z,45.05
2022-08-12T21:25:51.736Z,44.69
2022-08-12T21:28:58.382Z,44.84
2022-08-12T21:32:37.940Z,45.02
2022-08-12T21:41:20.401Z,45.25
2022-08-12T21:45:47.299Z,45.78
2022-08-12T21:51:22.673Z,48.91
2022-08-12T21:57:48.064Z,58.90
2022-08-12T22:00:42.938Z,75.98
2022-08-12T22:04:04.040Z,88.59
2022-08-12T22:07:46.066Z,99.45
2022-08-12T22:10:44.371Z,99.96
2022-08-12T22:16:07.179Z,100.00
2022-08-12T22:19:15.523Z,100.00
2022-08-12T22:22:05.829Z,100.00
2022-08-12T22:28:03.132Z,100.00
2022-08-12T22:30:53.137Z,100.00
2022-08-12T22:34:00.742Z,100.00
2022-08-12T22:36:34.890Z,100.00
2022-08-12T22:39:08.867Z,100.00
2022-08-12T22:42:19.939Z,100.00
2022-08-12T22:45:56.269Z,100.00
2022-08-12T22:52:00.795Z,100.00
2022-08-12T22:54:37.481Z,100.00
2022-08-12T22:58:12.599Z,100.00
2022-08-12T23:01:05.920Z,100.00
2022-08-12T23:03:55.716Z,100.00
2022-08-12T23:06:48.941Z,100.00
2022-08-12T23:10:17.708Z,100.00
2022-08-12T23:13:09.124Z,100.00
2022-08-12T23:15:47.709Z,100.00
2022-08-12T23:18:29.915Z,100.00
2022-08-12T23:22:05.498Z,100.00
2022-08-12T23:28:29.864Z,100.00
2022-08-12T23:32:01.843Z,100.00
2022-08-12T23:35:09.714Z,100.00
2022-08-12T23:38:09.910Z,100.00
2022-08-12T23:45:03.913Z,100.00
2022-08-12T23:48:31.319Z,100.00
2022-08-12T23:51:21.485Z,100.00
2022-08-12T23:57:21.626Z,100.00
